createdAt,value
2023-03-17T10:54:51.349Z,27.07
2023-03-17T10:57:20.538Z,27.03
2023-03-17T10:59:53.435Z,27.11
2023-03-17T11:02:26.761Z,27.15
2023-03-17T11:04:59.776Z,27.18
2023-03-17T11:07:31.292Z,27.17
2023-03-17T11:10:04.337Z,27.22
2023-03-17T11:12:39.373Z,27.21
2023-03-17T11:15:12.084Z,27.23
2023-03-17T11:17:47.794Z,27.25
2023-03-17T11:20:31.822Z,26.94
2023-03-17T11:23:05.913Z,27.28
2023-03-17T11:25:40.501Z,27.28
2023-03-17T11:28:19.965Z,27.12
2023-03-17T11:31:01.608Z,27.28
2023-03-17T11:33:36.575Z,27.27
2023-03-17T11:36:17.578Z,27.25
2023-03-17T11:38:58.256Z,27.26
2023-03-17T11:41:54.818Z,27.23
2023-03-17T11:44:43.358Z,27.22
2023-03-17T11:47:27.879Z,27.11
2023-03-17T11:50:04.155Z,27.20
2023-03-17T11:52:39.208Z,27.18
2023-03-17T11:55:17.629Z,27.16
2023-03-17T11:57:53.444Z,27.15
2023-03-17T12:00:27.631Z,27.14
2023-03-17T12:03:02.039Z,27.13
2023-03-17T12:05:31.633Z,27.12
2023-03-17T12:08:02.509Z,27.12
2023-03-17T12:10:36.417Z,27.13
2023-03-17T12:13:12.582Z,27.14
2023-03-17T12:15:44.652Z,26.96
2023-03-17T12:18:17.210Z,27.12
2023-03-17T12:20:52.654Z,27.14
2023-03-17T12:23:30.140Z,27.17
2023-03-17T12:26:05.141Z,27.20
2023-03-17T12:28:42.358Z,27.23
2023-03-17T12:31:14.087Z,27.24
2023-03-17T12:33:51.899Z,27.22
2023-03-17T12:36:20.573Z,27.18
2023-03-17T12:38:54.945Z,27.34
2023-03-17T12:41:44.032Z,27.15
2023-03-17T12:44:27.674Z,27.33
2023-03-17T12:47:11.199Z,27.31
2023-03-17T12:50:05.805Z,27.33
2023-03-17T12:52:53.038Z,27.33
2023-03-17T12:55:26.943Z,27.31
2023-03-17T12:58:02.264Z,27.33
2023-03-17T13:00:33.315Z,27.33
2023-03-17T13:03:20.220Z,27.31
2023-03-17T13:05:51.863Z,27.32
2023-03-17T13:08:28.148Z,27.34
2023-03-17T13:11:18.616Z,27.35
2023-03-17T13:14:08.588Z,27.17
2023-03-17T13:16:41.015Z,27.34
2023-03-17T13:19:16.395Z,27.35
2023-03-17T13:21:52.762Z,27.34
2023-03-17T13:24:24.261Z,27.32
2023-03-17T13:26:58.426Z,27.30
2023-03-17T13:29:47.743Z,27.28
2023-03-17T13:32:39.241Z,27.24
2023-03-17T13:35:37.828Z,27.25
2023-03-17T13:38:41.308Z,27.23
2023-03-17T13:41:28.016Z,27.24
2023-03-17T13:44:15.412Z,27.25
2023-03-17T13:46:46.925Z,27.18
2023-03-17T13:49:32.112Z,27.25
2023-03-17T13:52:08.648Z,27.24
2023-03-17T13:54:42.793Z,27.23
2023-03-17T13:57:28.559Z,27.21
2023-03-17T14:00:01.143Z,27.16
2023-03-17T14:02:32.913Z,27.16
2023-03-17T14:05:06.183Z,27.17
2023-03-17T14:07:45.698Z,27.18
2023-03-17T14:10:18.042Z,27.17
2023-03-17T14:12:51.964Z,27.14
2023-03-17T14:15:25.640Z,27.17
2023-03-17T14:17:57.483Z,27.18
2023-03-17T14:20:28.350Z,27.16
2023-03-17T14:22:58.311Z,27.14
2023-03-17T14:25:31.776Z,27.04
2023-03-17T14:28:00.537Z,27.13
2023-03-17T14:30:30.685Z,26.94
2023-03-17T14:33:04.472Z,27.11
2023-03-17T14:35:35.999Z,27.10
2023-03-17T14:38:04.368Z,27.10
2023-03-17T14:40:36.851Z,27.12
2023-03-17T14:43:05.328Z,27.15
2023-03-17T14:45:46.508Z,27.03
2023-03-17T14:48:16.510Z,27.17
2023-03-17T14:50:53.072Z,27.08
2023-03-17T14:53:24.045Z,27.18
2023-03-17T14:55:53.410Z,27.04
2023-03-17T14:58:25.842Z,27.15
2023-03-17T15:00:59.112Z,27.14
2023-03-17T15:03:31.646Z,27.09
2023-03-17T15:06:22.526Z,27.06
2023-03-17T15:08:54.011Z,26.90
2023-03-17T15:11:25.388Z,26.99
2023-03-17T15:13:58.125Z,26.98
2023-03-17T15:16:29.507Z,26.95
2023-03-17T15:19:07.044Z,26.93
2023-03-17T15:21:41.783Z,26.90
2023-03-17T15:24:34.049Z,26.83
2023-03-17T15:27:04.279Z,26.84
2023-03-17T15:29:32.205Z,26.83
2023-03-17T15:32:11.340Z,26.82
2023-03-17T15:34:39.451Z,26.79
2023-03-17T15:37:16.367Z,26.79
2023-03-17T15:39:44.632Z,26.76
2023-03-17T15:42:12.601Z,26.75
2023-03-17T15:44:40.659Z,26.72
2023-03-17T15:47:12.781Z,26.64
2023-03-17T15:49:40.659Z,26.69
2023-03-17T15:52:16.113Z,26.68
2023-03-17T15:54:44.722Z,26.66
2023-03-17T15:57:13.635Z,26.64
2023-03-17T15:59:42.092Z,26.43
2023-03-17T16:02:29.002Z,26.63
2023-03-17T16:04:57.405Z,26.60
2023-03-17T16:07:26.832Z,26.47
2023-03-17T16:09:54.958Z,26.57
2023-03-17T16:12:22.930Z,26.54
2023-03-17T16:14:51.513Z,26.53
2023-03-17T16:17:26.986Z,26.51
2023-03-17T16:19:55.901Z,26.50
2023-03-17T16:22:40.582Z,26.48
2023-03-17T16:25:19.832Z,26.45
2023-03-17T16:27:48.436Z,26.43
2023-03-17T16:30:17.984Z,26.33
2023-03-17T16:32:46.169Z,26.41
2023-03-17T16:35:19.203Z,26.38
2023-03-17T16:37:49.137Z,26.29
2023-03-17T16:40:22.813Z,26.37
2023-03-17T16:42:50.945Z,26.33
2023-03-17T16:45:23.464Z,26.32
2023-03-17T16:47:51.483Z,26.32
2023-03-17T16:50:22.530Z,26.14
2023-03-17T16:52:52.251Z,26.31
2023-03-17T16:55:21.777Z,26.31
2023-03-17T16:57:51.852Z,26.30
2023-03-17T17:00:22.273Z,26.30
2023-03-17T17:02:50.632Z,26.29
2023-03-17T17:05:21.269Z,26.30
2023-03-17T17:07:49.870Z,26.28
2023-03-17T17:10:21.368Z,26.30
2023-03-17T17:12:50.345Z,26.30
2023-03-17T17:15:20.159Z,26.29
2023-03-17T17:17:51.768Z,26.24
2023-03-17T17:20:22.610Z,26.15
2023-03-17T17:22:51.132Z,26.30
2023-03-17T17:25:20.468Z,26.29
2023-03-17T17:27:49.556Z,26.24
2023-03-17T17:30:19.802Z,26.25
2023-03-17T17:32:48.520Z,26.23
2023-03-17T17:35:17.668Z,26.23
2023-03-17T17:37:46.060Z,26.23
2023-03-17T17:40:17.025Z,26.22
2023-03-17T17:42:46.983Z,26.13
2023-03-17T17:45:15.808Z,26.22
2023-03-17T17:47:44.402Z,26.20
2023-03-17T17:50:17.908Z,26.12
2023-03-17T17:52:47.619Z,26.19
2023-03-17T17:55:16.234Z,26.07
2023-03-17T17:57:44.258Z,26.20
2023-03-17T18:00:17.221Z,26.15
2023-03-17T18:02:45.830Z,26.13
2023-03-17T18:05:14.393Z,26.21
2023-03-17T18:07:42.465Z,26.20
2023-03-17T18:10:16.991Z,26.17
2023-03-17T18:12:45.059Z,26.18
2023-03-17T18:15:14.549Z,26.19
2023-03-17T18:17:43.133Z,26.00
2023-03-17T18:20:13.599Z,26.08
2023-03-17T18:22:41.714Z,26.18
2023-03-17T18:25:11.153Z,26.19
2023-03-17T18:27:39.995Z,26.17
2023-03-17T18:30:11.875Z,26.09
2023-03-17T18:32:43.961Z,26.19
2023-03-17T18:35:15.944Z,26.19
2023-03-17T18:37:45.169Z,26.18
2023-03-17T18:40:18.441Z,26.20
2023-03-17T18:42:47.280Z,26.19
2023-03-17T18:45:15.925Z,26.01
2023-03-17T18:47:45.468Z,26.19
2023-03-17T18:50:15.479Z,26.17
2023-03-17T18:52:44.855Z,26.17
2023-03-17T18:55:14.341Z,26.00
2023-03-17T18:57:44.577Z,26.15
2023-03-17T19:00:16.355Z,26.17
2023-03-17T19:02:46.490Z,26.08
2023-03-17T19:05:15.461Z,26.16
2023-03-17T19:07:43.558Z,26.17
2023-03-17T19:10:14.067Z,26.16
2023-03-17T19:12:42.464Z,26.14
2023-03-17T19:15:12.467Z,26.14
2023-03-17T19:17:41.383Z,26.13
2023-03-17T19:20:13.169Z,26.00
2023-03-17T19:22:41.688Z,26.14
2023-03-17T19:25:10.666Z,26.15
2023-03-17T19:27:38.820Z,26.12
2023-03-17T19:30:08.798Z,26.13
2023-03-17T19:32:36.910Z,26.14
2023-03-17T19:35:05.769Z,26.14
2023-03-17T19:37:36.050Z,26.16
2023-03-17T19:40:06.283Z,26.14
2023-03-17T19:42:34.366Z,26.15
2023-03-17T19:45:02.491Z,26.15
2023-03-17T19:47:30.683Z,26.15
2023-03-17T19:49:58.799Z,26.15
2023-03-17T19:52:26.817Z,26.12
2023-03-17T19:54:56.392Z,26.18
2023-03-17T19:57:24.390Z,26.18
2023-03-17T19:59:53.105Z,25.92
2023-03-17T20:02:21.562Z,26.18
2023-03-17T20:04:49.684Z,26.19
2023-03-17T20:07:17.860Z,26.18
2023-03-17T20:09:47.969Z,26.19
2023-03-17T20:12:17.473Z,26.19
2023-03-17T20:14:45.671Z,26.18
2023-03-17T20:17:15.368Z,26.18
2023-03-17T20:19:43.303Z,26.18
2023-03-17T20:22:11.666Z,26.18
2023-03-17T20:24:39.769Z,26.16
2023-03-17T20:27:08.453Z,26.16
2023-03-17T20:29:38.393Z,26.16
2023-03-17T20:32:06.599Z,26.16
2023-03-17T20:34:34.776Z,26.15
2023-03-17T20:37:03.853Z,26.13
2023-03-17T20:39:32.470Z,26.14
2023-03-17T20:42:01.565Z,26.14
2023-03-17T20:44:29.503Z,26.13
2023-03-17T20:46:59.067Z,26.14
2023-03-17T20:49:27.773Z,26.13
2023-03-17T20:51:56.133Z,26.13
2023-03-17T20:54:24.308Z,26.14
2023-03-17T20:56:53.722Z,26.13
2023-03-17T20:59:21.761Z,26.10
2023-03-17T21:01:50.006Z,26.14
2023-03-17T21:04:20.947Z,26.15
2023-03-17T21:06:49.798Z,26.15
2023-03-17T21:09:17.756Z,26.18
2023-03-17T21:11:45.791Z,26.17
2023-03-17T21:14:14.551Z,26.17
2023-03-17T21:16:45.091Z,26.18
2023-03-17T21:19:15.374Z,26.18
2023-03-17T21:21:45.707Z,26.18
2023-03-17T21:24:25.157Z,26.20
2023-03-17T21:26:53.261Z,26.16
2023-03-17T21:29:22.012Z,26.18
2023-03-17T21:31:50.060Z,26.17
2023-03-17T21:34:18.066Z,26.15
2023-03-17T21:36:47.549Z,26.17
2023-03-17T21:39:16.255Z,26.17
2023-03-17T21:41:46.194Z,26.05
2023-03-17T21:44:15.958Z,26.14
2023-03-17T21:46:44.463Z,26.17
2023-03-17T21:49:13.215Z,26.16
2023-03-17T21:51:41.191Z,26.18
2023-03-17T21:54:10.645Z,26.16
2023-03-17T21:56:39.676Z,26.15
2023-03-17T21:59:10.838Z,26.15
2023-03-17T22:01:39.565Z,26.15
2023-03-17T22:04:07.970Z,26.16
2023-03-17T22:06:36.188Z,26.15
2023-03-17T22:09:05.334Z,26.17
2023-03-17T22:11:34.763Z,26.18
2023-03-17T22:14:02.924Z,26.18
2023-03-17T22:16:31.183Z,26.19
2023-03-17T22:18:59.232Z,26.18
2023-03-17T22:21:28.985Z,26.19
2023-03-17T22:23:57.650Z,26.19
2023-03-17T22:26:25.809Z,26.20
2023-03-17T22:28:55.743Z,26.21
2023-03-17T22:31:25.806Z,26.20
2023-03-17T22:33:55.288Z,26.24
2023-03-17T22:36:24.504Z,26.26
2023-03-17T22:38:53.350Z,26.26
2023-03-17T22:41:27.447Z,26.27
2023-03-17T22:43:57.567Z,26.28
2023-03-17T22:46:26.309Z,26.29
2023-03-17T22:48:54.348Z,26.30
2023-03-17T22:51:24.461Z,26.33
2023-03-17T22:53:53.494Z,26.30
2023-03-17T22:56:21.598Z,26.33
2023-03-17T22:58:50.167Z,26.33
2023-03-17T23:01:20.676Z,26.30
2023-03-17T23:03:48.881Z,26.34
2023-03-17T23:06:17.757Z,26.34
2023-03-17T23:08:46.557Z,26.34
2023-03-17T23:11:17.193Z,26.35
2023-03-17T23:13:45.914Z,26.38
2023-03-17T23:16:14.725Z,26.38
2023-03-17T23:18:46.882Z,26.38
2023-03-17T23:21:22.645Z,26.28
2023-03-17T23:23:51.195Z,26.36
2023-03-17T23:26:19.230Z,26.38
2023-03-17T23:28:47.576Z,26.39
2023-03-17T23:31:16.738Z,26.40
2023-03-17T23:33:46.560Z,26.41
2023-03-17T23:36:15.230Z,26.42
2023-03-17T23:38:44.014Z,26.43
2023-03-17T23:41:13.449Z,26.45
2023-03-17T23:43:41.669Z,26.46
2023-03-17T23:46:09.838Z,26.45
2023-03-17T23:48:40.344Z,26.46
2023-03-17T23:51:12.399Z,26.47
2023-03-17T23:53:41.695Z,26.48
2023-03-17T23:56:12.931Z,26.49
2023-03-17T23:58:42.474Z,26.50
